Time;durP1;ratioP1;P1;durP2;ratioP2;P2;SDS_P1;SDS_P2;PMS_P1;PMS_P2;Temp;Humidity;BMP_temperature;BMP_pressure;BME280_temperature;BME280_humidity;BME280_pressure;Samples;Min_cycle;Max_cycle;Signal;HPM_P1;HPM_P2
2023/09/08 00:00:45;;;;;;;10.50;7.70;;;;;;;15.81;100.00;98375.25;4972809;28;20230;-79
2023/09/08 00:03:11;;;;;;;10.73;8.50;;;;;;;15.76;100.00;98377.50;4973021;28;20230;-79
2023/09/08 00:05:38;;;;;;;11.50;9.00;;;;;;;15.73;100.00;98367.09;4973292;28;20214;-78
2023/09/08 00:08:05;;;;;;;10.57;8.43;;;;;;;15.71;100.00;98374.38;4972846;28;20207;-79
2023/09/08 00:10:33;;;;;;;11.27;8.57;;;;;;;15.69;100.00;98368.31;4972517;28;20242;-78
2023/09/08 00:12:59;;;;;;;10.77;8.47;;;;;;;15.69;100.00;98376.31;4973211;28;20209;-78
2023/09/08 00:15:26;;;;;;;10.70;7.90;;;;;;;15.63;100.00;98371.53;4972963;28;20801;-77
2023/09/08 00:17:52;;;;;;;10.87;8.33;;;;;;;15.60;100.00;98369.13;4972915;28;20579;-77
2023/09/08 00:20:19;;;;;;;12.23;8.93;;;;;;;15.56;100.00;98365.03;4972667;28;20231;-78
2023/09/08 00:22:45;;;;;;;11.27;9.00;;;;;;;15.53;100.00;98365.31;4973079;28;20207;-78
2023/09/08 00:25:12;;;;;;;12.57;9.17;;;;;;;15.51;100.00;98367.25;4972905;28;20226;-78
2023/09/08 00:27:40;;;;;;;9.83;7.97;;;;;;;15.49;100.00;98366.53;4972624;28;20213;-78
2023/09/08 00:30:08;;;;;;;9.83;8.20;;;;;;;15.44;100.00;98371.38;4972588;28;20206;-78
2023/09/08 00:32:34;;;;;;;10.80;8.33;;;;;;;15.38;100.00;98366.59;4973398;28;20218;-78
2023/09/08 00:35:01;;;;;;;11.63;8.03;;;;;;;15.36;100.00;98363.22;4974200;28;20632;-78
2023/09/08 00:37:27;;;;;;;10.47;8.33;;;;;;;15.27;100.00;98364.81;4974058;28;20210;-78
2023/09/08 00:39:53;;;;;;;11.07;8.60;;;;;;;15.27;100.00;98369.31;4973680;28;20214;-79
2023/09/08 00:42:20;;;;;;;10.07;8.07;;;;;;;15.26;100.00;98373.78;4973366;28;20226;-78
2023/09/08 00:44:48;;;;;;;10.53;8.60;;;;;;;15.21;100.00;98375.16;4972954;28;20242;-79
2023/09/08 00:47:14;;;;;;;12.60;8.97;;;;;;;15.15;100.00;98375.66;4973982;28;20222;-79
2023/09/08 00:49:41;;;;;;;12.20;8.73;;;;;;;15.16;100.00;98372.00;4978006;28;20214;-79
2023/09/08 00:52:07;;;;;;;10.37;8.13;;;;;;;15.11;100.00;98374.22;4977551;28;20237;-79
2023/09/08 00:54:34;;;;;;;11.77;8.37;;;;;;;15.12;100.00;98373.22;4977367;28;20211;-79
2023/09/08 00:57:03;;;;;;;10.80;8.90;;;;;;;15.13;100.00;98367.78;4977727;28;20218;-78
2023/09/08 00:59:30;;;;;;;13.30;9.20;;;;;;;15.15;100.00;98367.66;4977453;28;20269;-80
2023/09/08 01:01:58;;;;;;;12.63;9.43;;;;;;;15.17;100.00;98369.22;4977158;28;20231;-78
2023/09/08 01:04:24;;;;;;;13.57;8.97;;;;;;;15.19;100.00;98366.41;4977151;28;20246;-80
2023/09/08 01:06:51;;;;;;;13.00;9.20;;;;;;;15.19;100.00;98366.41;4977131;28;20207;-78
2023/09/08 01:09:19;;;;;;;13.53;9.37;;;;;;;15.19;100.00;98372.59;4977347;28;20214;-78
2023/09/08 01:11:45;;;;;;;14.57;10.00;;;;;;;15.17;100.00;98371.03;4976856;28;20333;-78
2023/09/08 01:14:13;;;;;;;14.10;10.27;;;;;;;15.15;100.00;98359.69;4977349;28;20689;-78
2023/09/08 01:16:39;;;;;;;13.87;9.83;;;;;;;15.17;100.00;98365.72;4977133;28;20218;-78
2023/09/08 01:19:10;;;;;;;12.77;10.10;;;;;;;15.16;100.00;98362.19;4977121;28;20736;-78
2023/09/08 01:22:05;;;;;;;12.93;10.20;;;;;;;15.16;100.00;98359.53;4976652;28;20230;-78
2023/09/08 01:24:48;;;;;;;14.37;10.10;;;;;;;15.18;100.00;98359.41;4975372;28;20230;-78
2023/09/08 01:27:17;;;;;;;13.93;9.80;;;;;;;15.19;100.00;98367.28;4977592;28;20226;-81
2023/09/08 01:29:46;;;;;;;14.30;10.33;;;;;;;15.20;100.00;98371.63;4976777;28;20222;-78
2023/09/08 01:32:13;;;;;;;14.03;10.40;;;;;;;15.20;100.00;98371.63;4976481;28;20235;-78
2023/09/08 01:34:40;;;;;;;15.50;10.07;;;;;;;15.18;100.00;98378.91;4976918;28;20582;-78
2023/09/08 01:37:07;;;;;;;13.53;10.17;;;;;;;15.16;100.00;98374.69;4976500;28;20337;-78
2023/09/08 01:39:34;;;;;;;13.63;9.67;;;;;;;15.15;100.00;98370.34;4976877;28;20226;-78
2023/09/08 01:42:03;;;;;;;13.03;9.50;;;;;;;15.16;100.00;98364.03;4976344;28;20599;-78
2023/09/08 01:44:31;;;;;;;12.23;9.63;;;;;;;15.16;100.00;98361.38;4976699;28;20237;-79
2023/09/08 01:46:58;;;;;;;12.43;9.70;;;;;;;15.15;100.00;98367.66;4976873;28;20215;-79
2023/09/08 01:49:25;;;;;;;14.10;10.03;;;;;;;15.13;100.00;98361.59;4976903;28;20693;-79
2023/09/08 01:51:51;;;;;;;13.20;10.27;;;;;;;15.09;100.00;98365.53;4975986;28;20600;-79
2023/09/08 01:54:17;;;;;;;14.03;9.43;;;;;;;15.08;100.00;98361.13;4976751;28;20211;-79
2023/09/08 01:56:44;;;;;;;11.77;9.33;;;;;;;15.06;100.00;98355.13;4976856;28;20214;-79
2023/09/08 01:59:10;;;;;;;11.57;8.97;;;;;;;15.02;100.00;98359.03;4976514;28;20218;-79
2023/09/08 02:01:38;;;;;;;12.67;9.80;;;;;;;15.00;100.00;98351.16;4976071;28;20237;-79
2023/09/08 02:04:05;;;;;;;13.97;10.20;;;;;;;14.99;100.00;98349.47;4976204;28;20235;-79
2023/09/08 02:06:32;;;;;;;12.83;9.83;;;;;;;14.99;100.00;98359.25;4975732;28;20694;-79
2023/09/08 02:08:58;;;;;;;11.57;9.27;;;;;;;14.98;100.00;98352.25;4976623;28;20218;-79
2023/09/08 02:11:25;;;;;;;13.83;10.53;;;;;;;14.98;100.00;98352.25;4975927;28;20245;-79
2023/09/08 02:13:53;;;;;;;13.80;9.87;;;;;;;14.95;100.00;98357.81;4976658;28;20203;-79
2023/09/08 02:16:19;;;;;;;14.10;9.83;;;;;;;14.91;100.00;98351.09;4976359;28;20206;-79
2023/09/08 02:18:47;;;;;;;14.20;9.43;;;;;;;14.91;100.00;98353.75;4976195;28;20678;-79
2023/09/08 02:21:13;;;;;;;14.00;9.93;;;;;;;14.88;100.00;98352.19;4976099;28;20237;-79
2023/09/08 02:23:40;;;;;;;13.73;10.67;;;;;;;14.85;100.00;98352.41;4975544;28;20230;-79
2023/09/08 02:26:06;;;;;;;13.23;9.93;;;;;;;14.81;100.00;98348.34;4975941;28;20681;-79
2023/09/08 02:28:33;;;;;;;13.57;9.57;;;;;;;14.77;100.00;98351.34;4976097;28;20598;-79
2023/09/08 02:30:59;;;;;;;12.73;9.20;;;;;;;14.70;100.00;98348.38;4975486;28;20257;-80
2023/09/08 02:33:26;;;;;;;13.13;10.17;;;;;;;14.65;100.00;98344.38;4975945;28;20238;-79
2023/09/08 02:35:53;;;;;;;13.17;10.00;;;;;;;14.59;100.00;98345.75;4976189;28;20226;-79
2023/09/08 02:38:20;;;;;;;12.33;9.47;;;;;;;14.54;100.00;98352.41;4975700;28;20218;-79
2023/09/08 02:40:46;;;;;;;13.23;9.67;;;;;;;14.45;100.00;98347.84;4975967;28;20246;-79
2023/09/08 02:43:13;;;;;;;11.70;9.10;;;;;;;14.41;100.00;98351.69;4975740;28;20294;-79
2023/09/08 02:45:39;;;;;;;11.60;9.07;;;;;;;14.40;100.00;98350.88;4976164;28;20268;-79
2023/09/08 02:48:06;;;;;;;13.27;9.20;;;;;;;14.36;100.00;98344.09;4975887;28;20305;-79
2023/09/08 02:50:33;;;;;;;11.43;8.83;;;;;;;14.32;100.00;98342.69;4975477;28;20230;-79
2023/09/08 02:53:01;;;;;;;11.63;8.97;;;;;;;14.31;100.00;98348.13;4975870;28;20222;-79
2023/09/08 02:55:27;;;;;;;11.30;8.73;;;;;;;14.27;100.00;98344.00;4975428;28;20708;-79
2023/09/08 02:57:54;;;;;;;12.47;8.80;;;;;;;14.25;100.00;98345.94;4975900;28;20219;-79
2023/09/08 03:00:20;;;;;;;13.80;9.67;;;;;;;14.25;100.00;98345.94;4974808;28;20227;-79
2023/09/08 03:02:47;;;;;;;12.87;9.33;;;;;;;14.23;100.00;98342.59;4975497;28;20219;-79
2023/09/08 03:05:13;;;;;;;11.50;9.47;;;;;;;14.21;100.00;98345.34;4975383;28;20235;-79
2023/09/08 03:07:40;;;;;;;12.77;10.03;;;;;;;14.18;100.00;98345.56;4975093;28;20229;-79
2023/09/08 03:10:09;;;;;;;14.67;11.00;;;;;;;14.22;100.00;98351.50;4974465;28;20305;-79
2023/09/08 03:12:35;;;;;;;12.47;9.97;;;;;;;14.25;100.00;98343.28;4975043;28;20219;-79
2023/09/08 03:15:04;;;;;;;13.70;10.30;;;;;;;14.25;100.00;98346.78;4974795;28;20547;-79
2023/09/08 03:17:31;;;;;;;14.90;10.23;;;;;;;14.26;100.00;98347.63;4975355;28;20215;-79
2023/09/08 03:19:57;;;;;;;15.67;10.70;;;;;;;14.26;100.00;98347.63;4974837;28;20211;-79
2023/09/08 03:22:24;;;;;;;15.93;11.03;;;;;;;14.26;100.00;98342.31;4974465;28;20226;-79
2023/09/08 03:24:51;;;;;;;15.30;10.27;;;;;;;14.28;100.00;98351.00;4975251;28;20230;-79
2023/09/08 03:27:19;;;;;;;14.77;10.70;;;;;;;14.28;100.00;98340.38;4974682;28;20255;-79
2023/09/08 03:29:45;;;;;;;17.63;11.70;;;;;;;14.28;100.00;98345.69;4975097;28;20210;-79
2023/09/08 03:32:11;;;;;;;14.43;10.57;;;;;;;14.27;100.00;98336.03;4975079;28;20234;-79
2023/09/08 03:34:39;;;;;;;15.37;10.43;;;;;;;14.29;100.00;98334.13;4974783;28;20213;-79
2023/09/08 03:37:06;;;;;;;13.30;10.13;;;;;;;14.25;100.00;98335.31;4974533;28;20234;-79
2023/09/08 03:39:32;;;;;;;15.40;10.73;;;;;;;14.28;100.00;98329.72;4975189;28;20211;-79
2023/09/08 03:41:59;;;;;;;14.03;10.63;;;;;;;14.29;100.00;98336.78;4975437;28;20234;-79
2023/09/08 03:44:28;;;;;;;13.03;10.70;;;;;;;14.30;100.00;98335.78;4975625;28;20801;-79
2023/09/08 03:46:55;;;;;;;19.03;11.33;;;;;;;14.36;100.00;98341.44;4975756;28;20257;-79
2023/09/08 03:49:21;;;;;;;15.50;11.50;;;;;;;14.40;100.00;98342.91;4975535;28;20218;-79
2023/09/08 03:51:48;;;;;;;13.90;11.13;;;;;;;14.42;100.00;98337.47;4975169;28;20227;-79
2023/09/08 03:54:14;;;;;;;14.07;10.40;;;;;;;14.39;100.00;98337.69;4974832;28;20207;-79
2023/09/08 03:56:40;;;;;;;15.10;11.30;;;;;;;14.33;100.00;98335.53;4974656;28;20217;-79
2023/09/08 03:59:07;;;;;;;15.73;10.70;;;;;;;14.28;100.00;98340.38;4974574;28;20703;-79
2023/09/08 04:01:35;;;;;;;14.97;10.63;;;;;;;14.26;100.00;98334.34;4973959;28;20721;-79
2023/09/08 04:04:02;;;;;;;15.13;10.60;;;;;;;14.23;100.00;98340.75;4974326;28;20215;-79
2023/09/08 04:06:29;;;;;;;15.87;11.00;;;;;;;14.20;100.00;98342.81;4975047;28;20274;-79
2023/09/08 04:08:55;;;;;;;17.27;11.50;;;;;;;14.19;100.00;98343.78;4975729;28;20257;-79
2023/09/08 04:11:22;;;;;;;15.87;11.83;;;;;;;14.16;100.00;98346.63;4974692;28;20249;-79
2023/09/08 04:13:48;;;;;;;14.97;10.63;;;;;;;14.16;100.00;98351.97;4975254;28;20215;-79
2023/09/08 04:16:14;;;;;;;13.87;10.80;;;;;;;14.15;100.00;98350.28;4975163;28;20211;-79
2023/09/08 04:18:42;;;;;;;16.73;11.73;;;;;;;14.13;100.00;98357.53;4974934;28;20215;-79
2023/09/08 04:21:09;;;;;;;13.70;10.60;;;;;;;14.18;100.00;98356.19;4973794;28;20754;-79
2023/09/08 04:23:35;;;;;;;16.10;11.40;;;;;;;14.15;100.00;98353.78;4977997;28;20618;-79
2023/09/08 04:26:02;;;;;;;14.63;10.83;;;;;;;14.15;100.00;98359.09;4977263;28;20576;-79
2023/09/08 04:28:28;;;;;;;15.03;11.13;;;;;;;14.15;100.00;98351.13;4976959;28;20685;-79
2023/09/08 04:30:55;;;;;;;16.47;11.17;;;;;;;14.11;100.00;98343.53;4977074;28;20234;-79
2023/09/08 04:33:21;;;;;;;15.60;10.93;;;;;;;14.10;100.00;98352.44;4977125;28;20230;-79
2023/09/08 04:35:49;;;;;;;14.87;10.87;;;;;;;14.08;100.00;98349.94;4976917;28;20696;-79
2023/09/08 04:38:15;;;;;;;15.37;11.60;;;;;;;14.08;100.00;98349.06;4977118;28;20233;-79
2023/09/08 04:40:42;;;;;;;15.23;11.40;;;;;;;14.06;100.00;98351.03;4976723;28;20233;-79
2023/09/08 04:43:09;;;;;;;16.10;11.77;;;;;;;14.08;100.00;98354.38;4976772;28;20262;-79
2023/09/08 04:45:35;;;;;;;14.60;10.90;;;;;;;14.08;100.00;98362.38;4976533;28;20242;-79
2023/09/08 04:48:02;;;;;;;14.13;11.47;;;;;;;14.03;100.00;98356.56;4976197;28;20213;-79
2023/09/08 04:50:28;;;;;;;16.47;11.50;;;;;;;13.96;100.00;98360.69;4975808;28;20226;-79
2023/09/08 04:52:56;;;;;;;15.67;11.00;;;;;;;13.92;100.00;98353.91;4976251;28;20215;-79
2023/09/08 04:55:23;;;;;;;16.70;11.77;;;;;;;13.93;100.00;98361.75;4976226;28;20214;-79
2023/09/08 04:57:49;;;;;;;16.37;11.83;;;;;;;13.93;100.00;98355.63;4976686;28;20217;-79
2023/09/08 05:00:16;;;;;;;15.13;10.93;;;;;;;13.95;100.00;98354.53;4976054;28;20601;-79
2023/09/08 05:02:43;;;;;;;14.93;11.17;;;;;;;14.03;100.00;98356.56;4976261;28;20210;-79
2023/09/08 05:05:09;;;;;;;16.10;11.30;;;;;;;14.08;100.00;98359.69;4976329;28;20234;-79
2023/09/08 05:07:36;;;;;;;15.67;11.67;;;;;;;14.10;100.00;98361.28;4976409;28;20222;-79
2023/09/08 05:10:04;;;;;;;14.63;10.77;;;;;;;14.11;100.00;98360.31;4976067;28;20210;-79
2023/09/08 05:12:30;;;;;;;15.93;11.67;;;;;;;14.15;100.00;98360.91;4976519;28;20217;-79
2023/09/08 05:15:00;;;;;;;17.10;11.20;;;;;;;14.17;100.00;98359.81;4975998;28;20329;-79
2023/09/08 05:17:27;;;;;;;16.83;11.27;;;;;;;14.20;100.00;98358.75;4976053;28;20237;-79
2023/09/08 05:19:53;;;;;;;15.53;11.23;;;;;;;14.22;100.00;98356.81;4975679;28;20211;-79
2023/09/08 05:22:20;;;;;;;16.00;11.03;;;;;;;14.20;100.00;98356.09;4975457;28;20218;-79
2023/09/08 05:24:46;;;;;;;17.20;11.67;;;;;;;14.20;100.00;98356.09;4975849;28;20252;-79
2023/09/08 05:27:14;;;;;;;15.83;11.63;;;;;;;14.26;100.00;98358.28;4975716;28;20569;-79
2023/09/08 05:29:40;;;;;;;15.00;10.73;;;;;;;14.30;100.00;98359.72;4975755;28;20210;-79
2023/09/08 05:32:07;;;;;;;16.77;11.20;;;;;;;14.35;100.00;98362.88;4975483;28;20230;-79
2023/09/08 05:34:34;;;;;;;18.10;12.20;;;;;;;14.43;100.00;98363.06;4975066;28;20674;-79
2023/09/08 05:37:00;;;;;;;16.40;11.73;;;;;;;14.47;100.00;98370.69;4975872;28;20242;-79
2023/09/08 05:39:27;;;;;;;14.87;11.37;;;;;;;14.52;100.00;98370.31;4976275;28;20218;-79
2023/09/08 05:41:53;;;;;;;14.20;10.23;;;;;;;14.61;100.00;98380.22;4975182;28;20237;-78
2023/09/08 05:44:21;;;;;;;17.30;11.50;;;;;;;14.72;100.00;98382.84;4975445;28;20215;-79
2023/09/08 05:46:48;;;;;;;17.63;11.60;;;;;;;14.76;100.00;98382.47;4975478;28;20214;-79
2023/09/08 05:49:14;;;;;;;16.33;11.70;;;;;;;14.87;100.00;98381.56;4975303;28;20210;-79
2023/09/08 05:51:41;;;;;;;15.70;11.03;;;;;;;14.96;100.00;98378.16;4975165;28;20353;-79
2023/09/08 05:54:08;;;;;;;17.37;12.07;;;;;;;15.06;100.00;98384.41;4975385;28;20548;-78
2023/09/08 05:56:35;;;;;;;16.17;11.63;;;;;;;15.12;100.00;98378.56;4977351;28;20207;-79
2023/09/08 05:59:01;;;;;;;14.60;10.70;;;;;;;15.21;100.00;98385.78;4977180;28;20211;-79
2023/09/08 06:01:29;;;;;;;17.97;12.17;;;;;;;15.30;100.00;98385.00;4977079;28;20601;-79
2023/09/08 06:03:56;;;;;;;15.43;11.37;;;;;;;15.39;100.00;98389.59;4976282;28;20563;-79
2023/09/08 06:06:25;;;;;;;18.37;13.50;;;;;;;15.43;100.00;98381.22;4976270;28;20226;-79
2023/09/08 06:08:51;;;;;;;15.43;11.13;;;;;;;15.53;100.00;98386.59;4975503;28;20210;-79
2023/09/08 06:11:18;;;;;;;14.80;10.67;;;;;;;15.61;100.00;98389.47;4974899;28;20663;-79
2023/09/08 06:13:44;;;;;;;14.67;10.40;;;;;;;15.68;100.00;98390.63;4975602;28;20219;-79
2023/09/08 06:16:11;;;;;;;13.23;10.20;;;;;;;15.78;100.00;98387.06;4975071;28;20704;-79
2023/09/08 06:18:40;;;;;;;12.63;9.93;;;;;;;15.89;100.00;98383.47;4975146;28;20207;-79
2023/09/08 06:21:07;;;;;;;13.03;10.40;;;;;;;15.95;100.00;98389.09;4974759;28;20720;-79
2023/09/08 06:23:34;;;;;;;12.43;10.07;;;;;;;16.10;100.00;98383.25;4975413;28;20215;-79
2023/09/08 06:26:01;;;;;;;15.17;10.43;;;;;;;16.21;100.00;98396.50;4977027;28;20234;-79
2023/09/08 06:28:27;;;;;;;11.67;9.93;;;;;;;16.24;100.00;98382.91;4976778;28;20215;-79
2023/09/08 06:30:55;;;;;;;13.13;10.17;;;;;;;16.39;100.00;98384.25;4976835;28;20241;-79
2023/09/08 06:33:22;;;;;;;12.37;10.17;;;;;;;16.47;100.00;98391.59;4977115;28;20716;-79
2023/09/08 06:35:50;;;;;;;14.83;10.10;;;;;;;16.58;100.00;98394.16;4976202;28;20214;-79
2023/09/08 06:38:16;;;;;;;13.93;10.07;;;;;;;16.68;100.00;98393.19;4974729;28;20585;-79
2023/09/08 06:40:43;;;;;;;14.40;10.03;;;;;;;16.80;100.00;98396.56;4974429;28;20233;-79
2023/09/08 06:43:09;;;;;;;14.47;11.00;;;;;;;16.92;100.00;98392.78;4973755;28;20221;-79
2023/09/08 06:45:38;;;;;;;13.03;9.90;;;;;;;17.01;100.00;98398.13;4973332;28;20242;-79
2023/09/08 06:48:05;;;;;;;12.10;9.37;;;;;;;17.15;100.00;98397.75;4974226;28;20704;-79
2023/09/08 06:50:32;;;;;;;14.10;9.83;;;;;;;17.27;100.00;98393.94;4974186;28;20234;-78
2023/09/08 06:53:01;;;;;;;12.80;9.30;;;;;;;17.38;100.00;98388.47;4974189;28;20293;-79
2023/09/08 06:55:28;;;;;;;11.47;8.97;;;;;;;17.48;100.00;98391.97;4973928;28;20303;-79
2023/09/08 06:57:54;;;;;;;13.27;9.37;;;;;;;17.60;100.00;98395.31;4973759;28;20538;-77
2023/09/08 07:00:21;;;;;;;10.00;8.43;;;;;;;17.70;100.00;98394.34;4973842;28;20233;-79
2023/09/08 07:02:49;;;;;;;10.70;8.87;;;;;;;17.83;100.00;98397.56;4974145;28;20214;-79
2023/09/08 07:05:16;;;;;;;10.63;8.63;;;;;;;17.91;100.00;98389.63;4973760;28;20325;-79
2023/09/08 07:07:42;;;;;;;11.97;8.87;;;;;;;18.03;100.00;98396.50;4973847;28;20221;-78
2023/09/08 07:10:12;;;;;;;13.13;9.13;;;;;;;18.17;100.00;98389.84;4973394;28;20210;-77
2023/09/08 07:12:38;;;;;;;11.33;8.60;;;;;;;18.30;100.00;98385.81;4973573;28;20211;-78
2023/09/08 07:15:06;;;;;;;11.07;9.00;;;;;;;18.43;100.00;98396.22;4973697;28;20682;-78
2023/09/08 07:17:32;;;;;;;13.83;9.13;;;;;;;18.57;100.00;98388.56;4973991;28;20214;-78
2023/09/08 07:19:58;;;;;;;10.33;8.83;;;;;;;18.65;100.00;98395.84;4973607;28;20208;-78
2023/09/08 07:22:25;;;;;;;12.13;8.93;;;;;;;18.74;100.00;98394.94;4973710;28;20207;-78
2023/09/08 07:24:51;;;;;;;11.27;9.17;;;;;;;18.84;100.00;98396.53;4973589;28;20210;-78
2023/09/08 07:27:20;;;;;;;9.73;8.73;;;;;;;18.98;100.00;98397.88;4973563;28;20222;-78
2023/09/08 07:29:47;;;;;;;12.60;9.63;;;;;;;19.09;100.00;98385.09;4973618;28;20233;-78
2023/09/08 07:32:19;;;;;;;11.90;9.17;;;;;;;19.22;100.00;98390.97;4973831;28;20276;-78
2023/09/08 07:34:45;;;;;;;11.90;8.77;;;;;;;19.32;100.00;98389.03;4973486;28;20266;-78
2023/09/08 07:37:15;;;;;;;12.00;9.37;;;;;;;19.46;100.00;98382.28;4973659;28;20264;-78
2023/09/08 07:39:41;;;;;;;12.60;9.33;;;;;;;19.53;100.00;98384.19;4973270;28;20222;-78
2023/09/08 07:42:08;;;;;;;9.70;8.50;;;;;;;19.65;100.00;98379.41;4973349;28;20249;-78
2023/09/08 07:44:36;;;;;;;12.60;9.13;;;;;;;19.76;100.00;98376.47;4973506;28;20215;-78
2023/09/08 07:47:03;;;;;;;11.40;8.37;;;;;;;19.84;100.00;98372.00;4973793;28;20231;-78
2023/09/08 07:49:29;;;;;;;10.50;8.23;;;;;;;19.95;100.00;98371.75;4973690;28;20688;-78
2023/09/08 07:51:56;;;;;;;12.80;8.70;;;;;;;20.09;100.00;98375.72;4974135;28;20230;-78
2023/09/08 07:54:22;;;;;;;9.73;7.97;;;;;;;20.16;100.00;98377.59;4973747;28;20211;-78
2023/09/08 07:56:48;;;;;;;9.17;8.10;;;;;;;20.31;100.00;98375.16;4973350;28;20214;-78
2023/09/08 07:59:15;;;;;;;10.13;8.40;;;;;;;20.35;100.00;98371.16;4974676;28;20217;-78
2023/09/08 08:01:43;;;;;;;10.50;8.17;;;;;;;20.50;100.00;98380.28;4974494;28;20227;-78
2023/09/08 08:04:09;;;;;;;9.90;8.33;;;;;;;20.56;100.00;98367.06;4976571;28;20217;-78
2023/09/08 08:06:36;;;;;;;11.90;8.23;;;;;;;20.76;100.00;98357.72;4976852;28;20236;-78
2023/09/08 08:09:03;;;;;;;9.90;8.23;;;;;;;20.85;100.00;98364.78;4977279;28;20211;-78
2023/09/08 08:11:29;;;;;;;10.40;8.70;;;;;;;21.06;100.00;98362.50;4976710;28;20246;-78
2023/09/08 08:13:57;;;;;;;9.40;8.13;;;;;;;21.10;100.00;98355.78;4976821;28;20210;-78
2023/09/08 08:16:24;;;;;;;8.50;7.60;;;;;;;21.16;100.00;98357.81;4976779;28;20207;-78
2023/09/08 08:18:52;;;;;;;9.43;7.77;;;;;;;21.28;99.47;98356.47;4973838;28;20251;-78
2023/09/08 08:21:18;;;;;;;10.00;8.03;;;;;;;21.36;99.00;98356.50;4972548;28;20245;-78
2023/09/08 08:23:45;;;;;;;9.70;8.40;;;;;;;21.52;98.20;98353.78;4972796;28;20219;-78
2023/09/08 08:26:11;;;;;;;9.33;7.63;;;;;;;21.69;96.41;98355.50;4972954;28;20245;-78
2023/09/08 08:28:38;;;;;;;8.87;7.43;;;;;;;21.75;96.02;98360.19;4973302;28;20681;-78
2023/09/08 08:31:04;;;;;;;9.63;8.07;;;;;;;21.85;95.54;98354.63;4972590;28;20230;-78
2023/09/08 08:33:31;;;;;;;9.90;8.40;;;;;;;21.98;94.94;98354.94;4972782;28;20214;-78
2023/09/08 08:36:00;;;;;;;12.23;8.77;;;;;;;22.03;94.62;98356.13;4972793;28;20203;-78
2023/09/08 08:38:26;;;;;;;11.60;8.87;;;;;;;22.13;94.42;98359.44;4973071;28;20214;-78
2023/09/08 08:40:53;;;;;;;10.23;7.70;;;;;;;22.17;94.47;98355.41;4972757;28;20285;-78
2023/09/08 08:43:20;;;;;;;9.90;8.80;;;;;;;22.34;93.27;98356.19;4973036;28;20213;-78
2023/09/08 08:45:47;;;;;;;9.40;8.40;;;;;;;22.39;91.82;98348.41;4972973;28;20230;-78
2023/09/08 08:48:15;;;;;;;10.50;8.13;;;;;;;22.50;90.68;98343.50;4972749;28;20222;-78
2023/09/08 08:50:44;;;;;;;8.73;7.83;;;;;;;22.60;92.77;98357.63;4972921;28;20230;-78
2023/09/08 08:53:13;;;;;;;9.43;8.00;;;;;;;22.77;92.38;98353.84;4972806;28;20577;-78
2023/09/08 08:55:40;;;;;;;9.80;8.33;;;;;;;22.91;91.41;98344.97;4972697;28;20274;-78
2023/09/08 08:58:07;;;;;;;10.30;8.47;;;;;;;23.01;87.04;98329.44;4974829;28;20215;-78
2023/09/08 09:00:36;;;;;;;11.83;8.70;;;;;;;23.04;84.51;98334.44;4972383;28;20321;-78
2023/09/08 09:03:05;;;;;;;11.47;8.87;;;;;;;23.03;87.11;98335.47;4972642;28;20211;-78
2023/09/08 09:05:32;;;;;;;10.67;8.07;;;;;;;23.17;89.56;98345.50;4972746;28;20211;-78
2023/09/08 09:08:03;;;;;;;9.33;7.90;;;;;;;23.22;87.24;98326.94;4973347;28;20203;-78
2023/09/08 09:10:31;;;;;;;10.57;7.97;;;;;;;23.27;84.88;98323.69;4975817;28;20258;-78
2023/09/08 09:12:57;;;;;;;10.03;8.43;;;;;;;23.37;85.79;98333.25;4976039;28;20214;-78
2023/09/08 09:15:29;;;;;;;8.90;8.00;;;;;;;23.51;84.16;98327.03;4975993;28;20222;-78
2023/09/08 09:18:06;;;;;;;10.07;8.30;;;;;;;23.64;84.64;98326.44;4976420;28;20202;-78
2023/09/08 09:20:33;;;;;;;9.37;7.47;;;;;;;23.92;85.93;98341.88;4975820;28;20234;-78
2023/09/08 09:23:00;;;;;;;10.10;7.97;;;;;;;23.95;81.55;98325.28;4975761;28;20211;-78
2023/09/08 09:25:28;;;;;;;8.47;6.80;;;;;;;23.92;75.66;98309.47;4976262;28;20210;-78
2023/09/08 09:27:58;;;;;;;8.17;7.37;;;;;;;24.03;77.83;98316.25;4975612;28;20207;-78
2023/09/08 09:30:26;;;;;;;8.57;7.67;;;;;;;23.99;75.47;98312.25;4975692;28;20289;-78
2023/09/08 09:33:02;;;;;;;8.70;7.90;;;;;;;24.01;75.85;98318.31;4975966;28;20207;-78
2023/09/08 09:35:41;;;;;;;8.97;8.03;;;;;;;24.21;78.02;98330.25;4975835;28;20292;-79
2023/09/08 09:38:09;;;;;;;8.87;7.97;;;;;;;24.33;75.97;98317.94;4975695;28;20645;-78
2023/09/08 09:40:35;;;;;;;9.50;8.07;;;;;;;24.51;72.82;98307.56;4975298;28;20222;-78
2023/09/08 09:43:04;;;;;;;8.53;7.33;;;;;;;24.63;72.05;98306.09;4975530;28;20238;-78
2023/09/08 09:45:31;;;;;;;8.77;7.20;;;;;;;24.67;71.66;98310.06;4975422;28;20211;-79
2023/09/08 09:47:58;;;;;;;7.70;6.90;;;;;;;24.82;71.32;98300.91;4975825;28;20693;-78
2023/09/08 09:50:30;;;;;;;8.20;7.40;;;;;;;24.86;71.62;98302.19;4975344;28;20227;-78
2023/09/08 09:52:59;;;;;;;8.40;7.40;;;;;;;24.96;71.28;98307.28;4975609;28;20211;-78
2023/09/08 09:55:26;;;;;;;7.30;6.60;;;;;;;24.98;71.38;98302.53;4975429;28;20732;-78
2023/09/08 09:57:56;;;;;;;7.93;7.13;;;;;;;24.98;71.32;98306.06;4976131;28;20222;-79
2023/09/08 10:00:25;;;;;;;10.13;8.00;;;;;;;24.95;69.23;98290.25;4975050;28;20234;-78
2023/09/08 10:02:52;;;;;;;8.40;7.17;;;;;;;25.09;70.54;98300.16;4975088;28;20251;-78
2023/09/08 10:05:19;;;;;;;8.13;7.30;;;;;;;25.25;68.05;98286.41;4975103;28;20233;-79
2023/09/08 10:07:47;;;;;;;8.63;7.73;;;;;;;25.25;69.01;98294.53;4974903;28;20227;-78
2023/09/08 10:10:14;;;;;;;9.37;8.40;;;;;;;25.36;69.58;98294.00;4974873;28;20706;-79
2023/09/08 10:12:44;;;;;;;7.63;6.87;;;;;;;25.43;69.78;98300.28;4975641;28;20631;-78
2023/09/08 10:15:11;;;;;;;10.27;7.93;;;;;;;25.45;68.60;98292.84;4975163;28;20222;-78
2023/09/08 10:17:41;;;;;;;7.17;6.47;;;;;;;25.56;67.11;98280.63;4975404;28;20207;-78
2023/09/08 10:20:11;;;;;;;7.50;6.73;;;;;;;25.69;63.51;98265.34;4974329;28;20214;-78
2023/09/08 10:22:41;;;;;;;9.23;7.93;;;;;;;25.56;65.40;98275.22;4976502;28;20233;-79
2023/09/08 10:25:09;;;;;;;8.40;7.50;;;;;;;25.60;66.00;98271.91;4975658;28;20211;-79
2023/09/08 10:27:36;;;;;;;8.13;7.17;;;;;;;25.65;67.28;98280.28;4974716;28;20312;-79
2023/09/08 10:30:05;;;;;;;8.50;7.60;;;;;;;25.71;66.69;98274.09;4974472;28;20654;-79
2023/09/08 10:32:33;;;;;;;8.50;7.13;;;;;;;25.79;67.39;98282.06;4974282;28;20270;-78
2023/09/08 10:35:02;;;;;;;8.40;7.50;;;;;;;25.83;67.22;98282.50;4974662;28;20215;-79
2023/09/08 10:37:29;;;;;;;9.57;7.40;;;;;;;25.97;65.76;98277.00;4974672;28;20211;-78
2023/09/08 10:39:56;;;;;;;8.57;7.10;;;;;;;25.96;63.72;98258.25;4974578;28;20218;-79
2023/09/08 10:42:25;;;;;;;7.93;6.87;;;;;;;25.98;62.45;98265.13;4976319;28;20218;-79
2023/09/08 10:45:15;;;;;;;7.78;6.97;;;;;;;25.98;63.11;98267.84;4974587;28;20213;-79
2023/09/08 10:47:57;;;;;;;7.25;6.28;;;;;;;25.92;62.10;98255.09;4974190;28;20242;-79
2023/09/08 10:50:32;;;;;;;7.60;6.80;;;;;;;26.10;61.44;98252.69;4973872;28;20237;-79
2023/09/08 10:53:05;;;;;;;7.03;6.00;;;;;;;26.16;59.61;98246.47;4974833;28;20207;-79
2023/09/08 10:55:36;;;;;;;8.23;6.97;;;;;;;26.06;59.21;98240.59;4979143;28;20207;-80
2023/09/08 10:58:04;;;;;;;7.13;6.40;;;;;;;25.99;59.55;98244.31;4979532;28;20409;-80
2023/09/08 11:00:44;;;;;;;8.23;5.70;;;;;;;26.05;60.44;98247.06;4979590;28;20231;-80
2023/09/08 11:03:11;;;;;;;8.27;6.80;;;;;;;26.11;61.82;98265.22;4979335;28;20218;-80
2023/09/08 11:05:39;;;;;;;8.73;6.70;;;;;;;26.26;60.54;98257.78;4978672;28;20217;-79
2023/09/08 11:08:06;;;;;;;6.93;6.22;;;;;;;26.28;58.72;98249.47;4979311;28;20230;-80
2023/09/08 11:10:34;;;;;;;6.97;6.32;;;;;;;26.38;59.50;98253.47;4973407;28;20721;-79
2023/09/08 11:13:02;;;;;;;7.17;6.47;;;;;;;26.41;60.16;98261.22;4973823;28;20245;-79
2023/09/08 11:15:30;;;;;;;9.83;6.37;;;;;;;26.56;60.58;98255.63;4973964;28;20298;-79
2023/09/08 11:17:56;;;;;;;7.20;6.50;;;;;;;26.52;58.14;98238.91;4974815;28;20674;-79
2023/09/08 11:20:27;;;;;;;7.22;6.53;;;;;;;26.47;58.80;98238.72;4973659;28;20234;-79